createdAt,value
2023-05-11T00:01:51.644Z,22.90
2023-05-11T00:04:18.326Z,23.38
2023-05-11T00:06:45.034Z,22.73
2023-05-11T00:09:11.750Z,22.55
2023-05-11T00:11:38.686Z,23.58
2023-05-11T00:14:05.474Z,24.38
2023-05-11T00:16:32.189Z,23.65
2023-05-11T00:18:58.977Z,24.63
2023-05-11T00:21:26.028Z,25.20
2023-05-11T00:23:52.558Z,26.50
2023-05-11T00:26:19.174Z,25.50
2023-05-11T00:28:45.808Z,29.50
2023-05-11T00:31:12.459Z,30.67
2023-05-11T00:33:39.023Z,30.63
2023-05-11T00:36:05.987Z,29.85
2023-05-11T00:38:32.636Z,33.15
2023-05-11T00:40:59.336Z,32.33
2023-05-11T00:43:26.188Z,31.88
2023-05-11T00:45:53.540Z,33.20
2023-05-11T00:48:20.286Z,34.53
2023-05-11T00:50:47.868Z,35.38
2023-05-11T00:53:14.527Z,32.92
2023-05-11T00:55:41.436Z,35.25
2023-05-11T00:58:08.101Z,35.78
2023-05-11T01:08:48.121Z,36.40
2023-05-11T01:11:34.061Z,36.03
2023-05-11T01:14:06.603Z,36.08
2023-05-11T01:16:37.172Z,36.03
2023-05-11T01:19:15.473Z,34.90
2023-05-11T01:21:42.052Z,35.05
2023-05-11T01:24:33.291Z,34.85
2023-05-11T01:27:20.142Z,35.90
2023-05-11T01:30:31.819Z,37.20
2023-05-11T01:33:02.380Z,36.25
2023-05-11T01:35:32.889Z,35.53
2023-05-11T01:38:01.083Z,36.17
2023-05-11T01:40:33.939Z,34.55
2023-05-11T01:43:04.558Z,35.65
2023-05-11T01:45:35.892Z,36.53
2023-05-11T01:48:06.225Z,35.92
2023-05-11T01:50:33.709Z,36.08
2023-05-11T01:53:04.117Z,34.15
2023-05-11T01:55:34.932Z,35.25
2023-05-11T01:58:03.931Z,36.40
2023-05-11T02:00:31.797Z,34.17
2023-05-11T02:03:00.473Z,33.38
2023-05-11T02:05:30.021Z,35.00
2023-05-11T02:07:59.851Z,32.75
2023-05-11T02:10:27.260Z,33.53
2023-05-11T02:12:55.554Z,32.33
2023-05-11T02:15:23.839Z,31.17
2023-05-11T02:17:52.880Z,29.65
2023-05-11T02:20:20.781Z,30.75
2023-05-11T02:22:48.121Z,30.58
2023-05-11T02:25:15.891Z,29.58
2023-05-11T02:27:42.640Z,28.98
2023-05-11T02:30:09.998Z,28.05
2023-05-11T02:32:42.468Z,28.45
2023-05-11T02:35:18.651Z,27.83
2023-05-11T02:37:46.931Z,29.60
2023-05-11T02:40:18.057Z,30.60
2023-05-11T02:42:47.545Z,29.88
2023-05-11T02:45:16.886Z,28.00
2023-05-11T02:47:48.128Z,27.83
2023-05-11T02:50:18.458Z,27.15
2023-05-11T02:52:46.872Z,28.70
2023-05-11T02:55:17.141Z,28.25
2023-05-11T02:57:45.844Z,26.67
2023-05-11T03:00:13.048Z,27.23
2023-05-11T03:02:39.780Z,28.17
2023-05-11T03:05:06.640Z,27.80
2023-05-11T03:07:33.789Z,28.08
2023-05-11T03:10:03.325Z,28.52
2023-05-11T03:12:33.910Z,28.30
2023-05-11T03:15:01.186Z,27.42
2023-05-11T03:17:29.143Z,25.90
2023-05-11T03:19:58.127Z,27.35
2023-05-11T03:22:25.528Z,27.05
2023-05-11T03:24:52.685Z,26.48
2023-05-11T03:27:20.472Z,26.77
2023-05-11T03:29:49.004Z,26.30
2023-05-11T03:32:15.779Z,26.52
2023-05-11T03:34:42.512Z,26.50
2023-05-11T03:37:12.637Z,25.48
2023-05-11T03:39:41.557Z,26.48
2023-05-11T03:42:09.170Z,25.23
2023-05-11T03:44:37.198Z,25.80
2023-05-11T03:47:04.442Z,25.52
2023-05-11T03:49:31.340Z,24.92
2023-05-11T03:51:58.042Z,25.10
2023-05-11T03:54:24.759Z,26.00
2023-05-11T03:56:52.196Z,25.30
2023-05-11T03:59:19.021Z,23.70
2023-05-11T04:01:46.184Z,22.70
2023-05-11T04:04:13.140Z,21.80
2023-05-11T04:06:42.763Z,22.13
2023-05-11T04:09:09.547Z,22.77
2023-05-11T04:11:37.874Z,21.63
2023-05-11T04:14:04.909Z,22.45
2023-05-11T04:16:31.508Z,21.65
2023-05-11T04:18:58.306Z,20.83
2023-05-11T04:21:24.982Z,21.05
2023-05-11T04:23:51.519Z,20.55
2023-05-11T04:26:18.090Z,21.38
2023-05-11T04:28:44.628Z,20.75
2023-05-11T04:31:11.293Z,19.77
2023-05-11T04:33:37.943Z,20.40
2023-05-11T04:36:04.944Z,19.42
2023-05-11T04:38:31.515Z,19.60
2023-05-11T04:40:58.097Z,19.88
2023-05-11T04:43:24.888Z,20.67
2023-05-11T04:45:51.784Z,21.02
2023-05-11T04:48:20.740Z,21.23
2023-05-11T04:50:47.793Z,19.65
2023-05-11T04:53:14.649Z,18.58
2023-05-11T04:55:41.213Z,19.58
2023-05-11T04:58:07.814Z,18.92
2023-05-11T05:00:34.380Z,19.55
2023-05-11T05:03:01.021Z,19.67
2023-05-11T05:05:27.660Z,18.35
2023-05-11T05:07:54.451Z,17.52
2023-05-11T05:10:21.987Z,18.23
2023-05-11T05:12:48.789Z,19.23
2023-05-11T05:15:15.364Z,19.35
2023-05-11T05:17:42.022Z,19.85
2023-05-11T05:20:08.995Z,19.25
2023-05-11T05:22:35.635Z,17.73
2023-05-11T05:25:02.196Z,18.00
2023-05-11T05:27:28.828Z,19.67
2023-05-11T05:29:55.389Z,18.27
2023-05-11T05:32:22.124Z,19.05
2023-05-11T05:34:48.793Z,22.95
2023-05-11T05:37:15.365Z,25.15
2023-05-11T05:39:42.025Z,36.08
2023-05-11T05:42:08.742Z,37.03
2023-05-11T05:44:35.519Z,37.90
2023-05-11T05:47:02.337Z,39.83
2023-05-11T05:49:29.396Z,39.47
2023-05-11T05:51:56.488Z,42.53
2023-05-11T05:54:23.304Z,51.95
2023-05-11T05:56:51.230Z,50.80
2023-05-11T05:59:21.699Z,52.58
2023-05-11T06:01:49.094Z,58.00
2023-05-11T06:04:16.300Z,58.85
2023-05-11T06:06:45.063Z,55.83
2023-05-11T06:09:11.975Z,55.72
2023-05-11T06:11:38.836Z,53.33
2023-05-11T06:14:05.915Z,51.78
2023-05-11T06:16:54.356Z,50.42
2023-05-11T06:19:27.692Z,53.08
2023-05-11T06:21:59.900Z,51.60
2023-05-11T06:24:27.136Z,50.97
2023-05-11T06:26:53.971Z,53.97
2023-05-11T06:29:22.387Z,52.22
2023-05-11T06:31:52.900Z,50.25
2023-05-11T06:34:20.670Z,49.70
2023-05-11T06:36:48.083Z,51.50
2023-05-11T06:39:14.997Z,50.97
2023-05-11T06:41:41.603Z,50.30
2023-05-11T06:44:08.560Z,49.80
2023-05-11T06:46:35.395Z,50.22
2023-05-11T06:49:02.192Z,48.58
2023-05-11T06:51:28.836Z,48.20
2023-05-11T06:53:55.836Z,49.92
2023-05-11T06:56:22.503Z,48.97
2023-05-11T06:58:49.065Z,46.90
2023-05-11T07:01:15.721Z,47.45
2023-05-11T07:03:42.463Z,40.83
2023-05-11T07:06:09.010Z,35.58
2023-05-11T07:08:35.569Z,35.78
2023-05-11T07:11:02.190Z,34.13
2023-05-11T07:13:28.713Z,41.25
2023-05-11T07:15:57.523Z,40.13
2023-05-11T07:18:24.593Z,40.97
2023-05-11T07:20:51.267Z,39.92
2023-05-11T07:23:17.822Z,35.80
2023-05-11T07:25:44.466Z,32.05
2023-05-11T07:28:11.245Z,32.50
2023-05-11T07:30:37.832Z,34.22
2023-05-11T07:33:04.433Z,33.85
2023-05-11T07:35:31.126Z,32.05
2023-05-11T07:37:57.775Z,32.85
2023-05-11T07:40:24.879Z,32.65
2023-05-11T07:42:51.570Z,31.38
2023-05-11T07:45:18.218Z,31.20
2023-05-11T07:47:45.253Z,28.90
2023-05-11T07:50:12.741Z,28.20
2023-05-11T07:52:39.635Z,31.17
2023-05-11T07:55:06.713Z,35.10
2023-05-11T07:57:33.367Z,33.05
2023-05-11T07:59:59.997Z,34.53
2023-05-11T08:02:26.643Z,35.30
2023-05-11T08:04:53.439Z,36.95
2023-05-11T08:07:20.024Z,36.92
2023-05-11T08:09:46.625Z,37.80
2023-05-11T08:12:13.433Z,36.28
2023-05-11T08:14:40.051Z,36.35
2023-05-11T08:17:06.656Z,36.55
2023-05-11T08:19:33.354Z,32.33
2023-05-11T08:22:01.443Z,33.00
2023-05-11T08:24:28.074Z,33.22
2023-05-11T08:26:54.597Z,33.88
2023-05-11T08:29:21.274Z,30.75
2023-05-11T08:31:49.615Z,31.30
2023-05-11T08:34:20.111Z,30.58
2023-05-11T08:36:46.990Z,29.55
2023-05-11T08:39:13.682Z,31.20
2023-05-11T08:41:40.327Z,30.35
2023-05-11T08:44:07.898Z,30.38
2023-05-11T08:46:36.419Z,29.95
2023-05-11T08:49:03.215Z,29.10
2023-05-11T08:51:29.850Z,28.95
2023-05-11T08:53:57.874Z,29.33
2023-05-11T08:56:26.621Z,29.90
2023-05-11T08:58:56.188Z,28.60
2023-05-11T09:01:23.878Z,34.08
2023-05-11T09:03:51.791Z,42.60
2023-05-11T09:06:18.861Z,41.47
2023-05-11T09:08:46.539Z,42.28
2023-05-11T09:11:13.894Z,38.15
2023-05-11T09:13:40.747Z,39.50
2023-05-11T09:16:16.816Z,36.88
2023-05-11T09:18:52.651Z,36.70
2023-05-11T09:21:20.093Z,34.30
2023-05-11T09:23:50.142Z,37.63
2023-05-11T09:26:21.821Z,37.60
2023-05-11T09:29:02.521Z,36.40
2023-05-11T09:31:43.750Z,34.35
2023-05-11T09:34:18.610Z,31.55
2023-05-11T09:37:09.065Z,32.67
2023-05-11T09:39:47.342Z,30.88
2023-05-11T09:42:23.975Z,31.80
2023-05-11T09:44:50.666Z,29.33
2023-05-11T09:47:18.977Z,27.90
2023-05-11T09:49:48.765Z,28.60
2023-05-11T09:52:17.505Z,26.73
2023-05-11T09:54:46.363Z,26.00
2023-05-11T09:57:28.076Z,23.35
2023-05-11T09:59:56.612Z,24.80
2023-05-11T10:02:28.430Z,22.75
2023-05-11T10:04:57.452Z,23.65
2023-05-11T10:07:28.802Z,22.35
2023-05-11T10:10:06.317Z,21.08
2023-05-11T10:12:33.999Z,21.50
2023-05-11T10:15:06.346Z,20.75
2023-05-11T10:17:33.527Z,21.58
2023-05-11T10:20:01.126Z,21.15
2023-05-11T10:22:29.903Z,20.77
2023-05-11T10:24:57.907Z,18.75
2023-05-11T10:27:25.431Z,17.48
2023-05-11T10:29:52.319Z,17.25
2023-05-11T10:32:20.154Z,14.10
2023-05-11T10:34:48.334Z,14.70
2023-05-11T10:37:16.282Z,13.25
2023-05-11T10:39:46.081Z,15.60
2023-05-11T10:42:42.714Z,16.23
2023-05-11T10:45:21.904Z,14.93
2023-05-11T10:47:48.767Z,13.57
2023-05-11T10:50:42.932Z,14.23
2023-05-11T10:53:19.003Z,15.27
2023-05-11T10:56:12.416Z,14.32
2023-05-11T10:59:15.271Z,14.85
2023-05-11T11:01:43.486Z,14.00
2023-05-11T11:04:14.351Z,15.07
2023-05-11T11:06:42.567Z,15.10
2023-05-11T11:09:14.691Z,16.98
2023-05-11T11:11:47.166Z,17.77
2023-05-11T11:14:15.490Z,16.90
2023-05-11T11:17:17.294Z,15.55
2023-05-11T11:19:44.070Z,15.88
2023-05-11T11:22:32.810Z,16.77
2023-05-11T11:24:59.648Z,15.35
2023-05-11T11:27:41.911Z,15.35
2023-05-11T11:30:26.999Z,15.98
2023-05-11T11:33:15.087Z,15.82
2023-05-11T11:35:42.764Z,14.82
2023-05-11T11:38:16.095Z,15.60
2023-05-11T11:43:23.931Z,17.58
2023-05-11T11:46:04.101Z,17.92
2023-05-11T11:48:42.997Z,19.15
2023-05-11T11:51:11.678Z,17.95
2023-05-11T11:53:38.572Z,20.08
2023-05-11T11:56:15.367Z,19.05
2023-05-11T11:58:42.496Z,19.27
2023-05-11T12:01:14.460Z,20.30
2023-05-11T12:03:43.439Z,19.77
2023-05-11T12:06:11.268Z,20.17
2023-05-11T12:08:39.058Z,19.63
2023-05-11T12:11:06.485Z,19.02
2023-05-11T12:13:34.187Z,20.52
2023-05-11T12:16:14.838Z,21.92
2023-05-11T12:18:42.773Z,20.55
2023-05-11T12:21:23.031Z,21.90
2023-05-11T12:23:56.766Z,20.30
2023-05-11T12:26:24.776Z,21.45
2023-05-11T12:28:52.549Z,24.75
2023-05-11T12:31:19.671Z,20.25
2023-05-11T12:33:51.203Z,23.55
2023-05-11T12:36:19.877Z,22.70
2023-05-11T12:38:47.627Z,23.58
2023-05-11T12:41:22.528Z,23.83
2023-05-11T12:43:53.715Z,25.27
2023-05-11T12:46:22.405Z,27.00
2023-05-11T12:48:50.536Z,27.38
2023-05-11T12:51:43.228Z,26.10
2023-05-11T12:54:10.211Z,26.50
2023-05-11T12:56:48.160Z,25.98
2023-05-11T12:59:29.557Z,26.45
2023-05-11T13:02:09.901Z,27.85
2023-05-11T13:04:37.289Z,26.90
2023-05-11T13:07:04.216Z,28.60
2023-05-11T13:09:31.317Z,29.58
2023-05-11T13:12:17.630Z,27.40
2023-05-11T13:14:49.642Z,28.92
2023-05-11T13:17:35.888Z,28.45
2023-05-11T13:20:23.812Z,29.60
2023-05-11T13:22:51.219Z,27.70
2023-05-11T13:25:20.789Z,28.55
2023-05-11T13:27:47.779Z,29.27
2023-05-11T13:30:14.580Z,30.50
2023-05-11T13:32:41.265Z,30.73
2023-05-11T13:35:08.181Z,29.60
2023-05-11T13:37:34.875Z,27.98
2023-05-11T13:40:02.095Z,26.95
2023-05-11T13:42:29.238Z,27.38
2023-05-11T13:44:56.219Z,27.35
2023-05-11T13:47:23.324Z,25.88
2023-05-11T13:49:49.965Z,26.52
2023-05-11T13:52:16.599Z,25.77
2023-05-11T13:54:43.227Z,24.83
2023-05-11T13:57:10.179Z,23.30
2023-05-11T13:59:37.016Z,24.08
2023-05-11T14:02:03.894Z,22.38
2023-05-11T14:04:30.766Z,22.23
2023-05-11T14:06:58.416Z,22.42
2023-05-11T14:09:25.209Z,21.67
2023-05-11T14:11:51.756Z,20.38
2023-05-11T14:14:18.401Z,18.73
2023-05-11T14:16:45.030Z,18.23
2023-05-11T14:19:11.858Z,16.15
2023-05-11T14:21:38.653Z,16.23
2023-05-11T14:24:12.043Z,15.30
2023-05-11T14:26:39.604Z,15.10
2023-05-11T14:29:06.204Z,15.35
2023-05-11T14:31:34.878Z,15.60
2023-05-11T14:34:02.812Z,15.27
2023-05-11T14:36:29.962Z,16.50
2023-05-11T14:38:56.697Z,15.60
2023-05-11T14:41:23.610Z,16.10
2023-05-11T14:43:50.390Z,14.98
2023-05-11T14:46:17.117Z,15.15
2023-05-11T14:48:43.885Z,14.55
2023-05-11T14:51:10.650Z,14.48
2023-05-11T14:53:37.303Z,14.25
2023-05-11T14:56:03.966Z,12.07
2023-05-11T14:58:30.582Z,13.75
2023-05-11T15:00:57.264Z,12.63
2023-05-11T15:03:25.140Z,11.50
2023-05-11T15:05:52.039Z,12.13
2023-05-11T15:08:29.072Z,11.93
2023-05-11T15:10:57.138Z,11.93
2023-05-11T15:13:24.171Z,12.20
2023-05-11T15:15:51.501Z,11.55
2023-05-11T15:18:18.890Z,12.88
2023-05-11T15:20:46.489Z,12.73
2023-05-11T15:23:16.963Z,12.30
2023-05-11T15:25:44.849Z,14.32
2023-05-11T15:28:11.848Z,12.10
2023-05-11T15:30:38.755Z,10.98
2023-05-11T15:33:05.572Z,11.90
2023-05-11T15:35:34.772Z,10.75
2023-05-11T15:38:01.399Z,9.23
2023-05-11T15:40:29.346Z,10.48
2023-05-11T15:42:58.473Z,10.57
2023-05-11T15:45:26.029Z,10.13
2023-05-11T15:47:52.800Z,10.82
2023-05-11T15:50:19.845Z,9.60
2023-05-11T15:52:46.704Z,9.88
2023-05-11T15:55:13.385Z,10.13
2023-05-11T15:57:39.979Z,9.63
2023-05-11T16:00:09.874Z,10.27
2023-05-11T16:02:36.643Z,9.32
2023-05-11T16:05:03.554Z,9.40
2023-05-11T16:07:30.138Z,8.80
2023-05-11T16:09:56.714Z,9.38
2023-05-11T16:12:23.288Z,9.93
2023-05-11T16:14:49.871Z,9.35
2023-05-11T16:17:16.591Z,9.20
2023-05-11T16:19:43.293Z,9.43
2023-05-11T16:22:09.881Z,9.68
2023-05-11T16:24:36.464Z,9.68
2023-05-11T16:27:03.320Z,9.50
2023-05-11T16:29:29.986Z,8.40
2023-05-11T16:31:57.091Z,8.43
2023-05-11T16:34:23.922Z,7.70
2023-05-11T16:36:50.584Z,8.10
2023-05-11T16:39:20.248Z,8.20
2023-05-11T16:41:46.829Z,8.00
2023-05-11T16:44:13.455Z,7.50
2023-05-11T16:46:40.050Z,7.13
2023-05-11T16:49:06.685Z,7.50
2023-05-11T16:51:34.247Z,7.85
2023-05-11T16:54:00.894Z,7.78
2023-05-11T16:56:27.797Z,8.23
2023-05-11T16:58:54.648Z,6.97
2023-05-11T17:01:21.331Z,6.70
2023-05-11T17:03:48.073Z,6.07
2023-05-11T17:06:19.054Z,6.20
2023-05-11T17:08:47.283Z,6.07
2023-05-11T17:11:14.473Z,6.20
2023-05-11T17:13:41.244Z,6.60
2023-05-11T17:16:07.970Z,6.32
2023-05-11T17:18:34.753Z,6.47
2023-05-11T17:21:01.431Z,6.32
2023-05-11T17:23:28.593Z,6.20
2023-05-11T17:25:55.875Z,6.03
2023-05-11T17:28:22.642Z,5.95
2023-05-11T17:30:52.960Z,6.20
2023-05-11T17:33:24.639Z,5.15
2023-05-11T17:35:51.614Z,4.53
2023-05-11T17:38:18.605Z,4.82
2023-05-11T17:40:45.380Z,4.03
2023-05-11T17:43:12.957Z,3.63
2023-05-11T17:45:39.676Z,3.67
2023-05-11T17:48:06.576Z,2.50
2023-05-11T17:50:36.524Z,2.55
2023-05-11T17:53:03.390Z,2.50
2023-05-11T17:55:30.353Z,2.70
2023-05-11T17:57:57.196Z,2.63
2023-05-11T18:00:24.359Z,2.53
2023-05-11T18:03:35.247Z,2.65
2023-05-11T18:06:02.439Z,3.45
2023-05-11T18:08:31.951Z,2.85
2023-05-11T18:11:01.872Z,2.78
2023-05-11T18:13:29.107Z,3.20
2023-05-11T18:16:00.038Z,2.85
2023-05-11T18:18:27.076Z,3.15
2023-05-11T18:20:57.586Z,2.80
2023-05-11T18:23:24.849Z,3.03
2023-05-11T18:25:51.630Z,3.03
2023-05-11T18:28:18.431Z,3.70
2023-05-11T18:30:45.169Z,3.50
2023-05-11T18:33:15.437Z,3.97
2023-05-11T18:35:42.456Z,3.63
2023-05-11T18:38:09.100Z,2.90
2023-05-11T18:40:35.871Z,2.70
2023-05-11T18:43:03.424Z,2.72
2023-05-11T18:45:30.978Z,2.50
2023-05-11T18:48:00.571Z,3.25
2023-05-11T18:50:36.580Z,3.55
2023-05-11T18:53:05.867Z,4.10
2023-05-11T18:55:44.821Z,4.40
2023-05-11T18:58:15.087Z,4.57
2023-05-11T19:00:59.798Z,4.75
2023-05-11T19:03:26.739Z,4.32
2023-05-11T19:05:56.673Z,5.13
2023-05-11T19:08:26.123Z,4.93
2023-05-11T19:10:58.582Z,5.30
2023-05-11T19:13:27.793Z,5.30
2023-05-11T19:16:00.525Z,5.00
2023-05-11T19:18:27.992Z,5.28
2023-05-11T19:20:55.633Z,5.50
2023-05-11T19:23:25.907Z,5.97
2023-05-11T19:26:03.527Z,5.93
2023-05-11T19:28:31.132Z,5.65
2023-05-11T19:31:15.983Z,6.43
2023-05-11T19:33:42.876Z,6.43
2023-05-11T19:36:10.625Z,6.28
2023-05-11T19:38:41.296Z,6.10
2023-05-11T19:41:09.445Z,5.88
2023-05-11T19:43:36.153Z,5.93
2023-05-11T19:46:04.076Z,5.97
2023-05-11T19:48:31.078Z,5.90
2023-05-11T19:50:58.817Z,6.05
2023-05-11T19:53:27.166Z,5.57
2023-05-11T19:55:54.021Z,6.07
2023-05-11T19:58:20.822Z,5.78
2023-05-11T20:00:47.819Z,6.35
2023-05-11T20:03:14.611Z,5.82
2023-05-11T20:05:42.058Z,5.03
2023-05-11T20:08:09.292Z,5.70
2023-05-11T20:10:36.013Z,6.47
2023-05-11T20:13:06.462Z,6.20
2023-05-11T20:15:34.093Z,7.40
2023-05-11T20:18:04.161Z,6.93
2023-05-11T20:20:31.619Z,7.35
2023-05-11T20:22:59.363Z,7.72
2023-05-11T20:25:26.032Z,8.07
2023-05-11T20:27:52.919Z,7.72
2023-05-11T20:30:19.845Z,8.93
2023-05-11T20:35:18.113Z,8.02
2023-05-11T20:37:44.919Z,8.75
2023-05-11T20:40:12.337Z,8.73
2023-05-11T20:42:38.987Z,8.82
2023-05-11T20:45:07.482Z,8.75
2023-05-11T20:47:34.921Z,8.68
2023-05-11T20:50:01.782Z,9.60
2023-05-11T20:52:28.557Z,9.00
2023-05-11T20:54:55.238Z,9.63
2023-05-11T20:57:22.053Z,9.25
2023-05-11T21:02:18.323Z,10.57
2023-05-11T21:04:45.901Z,9.98
2023-05-11T21:07:12.507Z,10.13
2023-05-11T21:09:39.165Z,10.77
2023-05-11T21:12:06.091Z,10.52
2023-05-11T21:14:32.733Z,10.48
2023-05-11T21:16:59.327Z,11.52
2023-05-11T21:19:26.007Z,10.50
2023-05-11T21:21:52.640Z,11.40
2023-05-11T21:24:20.251Z,10.65
2023-05-11T21:26:48.155Z,10.68
2023-05-11T21:29:15.058Z,11.82
2023-05-11T21:31:41.626Z,11.63
2023-05-11T21:34:08.348Z,12.02
2023-05-11T21:36:34.985Z,12.27
2023-05-11T21:39:01.551Z,12.13
2023-05-11T21:41:28.196Z,12.95
2023-05-11T21:43:54.860Z,13.60
2023-05-11T21:46:21.895Z,13.18
2023-05-11T21:48:48.567Z,13.73
2023-05-11T21:51:15.261Z,14.02
2023-05-11T21:53:41.837Z,13.60
2023-05-11T21:56:09.908Z,13.85
2023-05-11T21:58:37.237Z,14.32
2023-05-11T22:01:03.931Z,14.57
2023-05-11T22:03:31.656Z,14.32
2023-05-11T22:05:58.759Z,14.05
2023-05-11T22:08:25.401Z,15.02
2023-05-11T22:10:52.111Z,15.15
2023-05-11T22:13:19.450Z,14.25
2023-05-11T22:15:46.112Z,14.50
2023-05-11T22:18:12.786Z,14.40
2023-05-11T23:14:18.439Z,16.73
2023-05-11T23:16:45.073Z,18.02
2023-05-11T23:19:11.700Z,16.27
2023-05-11T23:21:38.281Z,16.25
2023-05-11T23:24:05.171Z,16.13
2023-05-11T23:26:31.728Z,15.93
2023-05-11T23:28:58.431Z,16.83
2023-05-11T23:31:25.684Z,16.80
2023-05-11T23:33:52.280Z,15.73
2023-05-11T23:36:34.271Z,16.65
2023-05-11T23:39:00.965Z,17.08
2023-05-11T23:41:27.585Z,16.25
2023-05-11T23:43:54.193Z,16.35
2023-05-11T23:46:20.796Z,16.30
2023-05-11T23:48:47.834Z,17.13
2023-05-11T23:51:15.304Z,16.48
2023-05-11T23:53:42.076Z,16.55
2023-05-11T23:56:08.628Z,16.65
2023-05-11T23:58:35.240Z,17.55
